createdAt,value
2023-04-09T00:01:55.706Z,17.92
2023-04-09T00:04:58.232Z,16.65
2023-04-09T00:08:01.405Z,16.33
2023-04-09T00:11:04.438Z,16.67
2023-04-09T00:14:07.322Z,18.02
2023-04-09T00:17:10.041Z,18.37
2023-04-09T00:20:13.004Z,15.90
2023-04-09T00:23:15.857Z,17.40
2023-04-09T00:26:18.995Z,16.52
2023-04-09T00:29:22.233Z,17.75
2023-04-09T00:32:25.174Z,17.63
2023-04-09T00:35:27.719Z,17.67
2023-04-09T00:38:31.109Z,17.40
2023-04-09T00:41:33.976Z,18.38
2023-04-09T00:44:36.777Z,18.77
2023-04-09T00:47:39.705Z,16.93
2023-04-09T00:50:43.446Z,17.02
2023-04-09T00:53:46.712Z,18.10
2023-04-09T00:56:49.369Z,17.88
2023-04-09T00:59:52.809Z,16.70
2023-04-09T01:03:01.173Z,18.13
2023-04-09T01:06:11.342Z,18.20
2023-04-09T01:09:41.832Z,18.30
2023-04-09T01:13:00.478Z,19.63
2023-04-09T01:16:04.179Z,17.02
2023-04-09T01:19:26.960Z,16.33
2023-04-09T01:23:06.761Z,17.33
2023-04-09T01:26:30.926Z,15.73
2023-04-09T01:29:39.461Z,14.60
2023-04-09T01:32:43.891Z,13.18
2023-04-09T01:35:49.191Z,14.20
2023-04-09T01:38:53.322Z,13.75
2023-04-09T01:41:58.100Z,14.13
2023-04-09T01:45:01.897Z,15.02
2023-04-09T01:48:05.784Z,14.48
2023-04-09T01:51:08.924Z,15.53
2023-04-09T01:54:11.736Z,15.10
2023-04-09T01:57:14.344Z,15.75
2023-04-09T02:00:17.408Z,16.73
2023-04-09T02:03:26.989Z,17.58
2023-04-09T02:06:48.706Z,16.58
2023-04-09T02:09:54.465Z,15.95
2023-04-09T02:13:00.182Z,17.23
2023-04-09T02:16:04.017Z,16.73
2023-04-09T02:19:06.930Z,16.83
2023-04-09T02:22:09.881Z,17.10
2023-04-09T02:25:13.162Z,17.33
2023-04-09T02:28:16.457Z,16.63
2023-04-09T02:31:19.553Z,16.95
2023-04-09T02:34:22.947Z,16.10
2023-04-09T02:37:25.988Z,16.85
2023-04-09T02:40:28.596Z,17.73
2023-04-09T02:43:31.578Z,16.57
2023-04-09T02:46:34.476Z,16.65
2023-04-09T02:49:37.178Z,17.48
2023-04-09T02:52:40.160Z,16.63
2023-04-09T02:55:42.821Z,16.42
2023-04-09T02:58:45.793Z,16.90
2023-04-09T03:01:48.957Z,17.80
2023-04-09T03:04:53.053Z,16.38
2023-04-09T03:07:57.236Z,16.20
2023-04-09T03:11:00.717Z,17.00
2023-04-09T03:14:03.588Z,18.43
2023-04-09T03:17:06.228Z,18.75
2023-04-09T03:20:09.457Z,17.17
2023-04-09T03:23:14.554Z,17.40
2023-04-09T03:26:21.857Z,16.83
2023-04-09T03:29:26.263Z,16.85
2023-04-09T03:32:29.443Z,16.13
2023-04-09T03:35:32.209Z,16.17
2023-04-09T03:38:36.825Z,16.88
2023-04-09T03:41:45.593Z,15.35
2023-04-09T03:44:54.047Z,15.87
2023-04-09T03:48:09.654Z,15.07
2023-04-09T03:51:14.370Z,15.50
2023-04-09T03:54:23.007Z,15.27
2023-04-09T03:57:27.806Z,15.13
2023-04-09T04:00:31.781Z,14.82
2023-04-09T04:03:54.871Z,13.95
2023-04-09T04:06:59.794Z,15.20
2023-04-09T04:10:09.970Z,14.68
2023-04-09T04:13:15.724Z,14.98
2023-04-09T04:16:26.200Z,14.90
2023-04-09T04:19:30.591Z,14.82
2023-04-09T04:22:34.914Z,13.75
2023-04-09T04:25:42.838Z,14.80
2023-04-09T04:28:49.145Z,13.75
2023-04-09T04:32:03.073Z,13.02
2023-04-09T04:35:11.990Z,13.65
2023-04-09T04:38:15.949Z,12.68
2023-04-09T04:41:18.914Z,12.63
2023-04-09T04:44:28.776Z,11.48
2023-04-09T04:47:51.320Z,11.10
2023-04-09T04:51:05.951Z,10.57
2023-04-09T04:54:16.072Z,11.05
2023-04-09T04:57:25.574Z,10.37
2023-04-09T05:00:29.469Z,11.18
2023-04-09T05:03:36.983Z,11.65
2023-04-09T05:06:52.925Z,11.77
2023-04-09T05:09:58.950Z,11.32
2023-04-09T05:13:04.801Z,10.85
2023-04-09T05:16:20.799Z,10.93
2023-04-09T05:19:29.561Z,11.33
2023-04-09T05:22:36.468Z,10.43
2023-04-09T05:25:40.040Z,11.18
2023-04-09T05:28:48.895Z,11.23
2023-04-09T05:31:55.082Z,11.60
2023-04-09T05:35:11.381Z,10.32
2023-04-09T05:38:18.980Z,11.20
2023-04-09T05:41:28.970Z,10.75
2023-04-09T05:44:53.728Z,10.70
2023-04-09T05:47:57.297Z,11.10
2023-04-09T05:51:01.104Z,11.80
2023-04-09T05:54:04.778Z,10.63
2023-04-09T05:57:11.946Z,11.93
2023-04-09T06:00:18.521Z,12.17
2023-04-09T06:03:23.110Z,12.73
2023-04-09T06:06:26.336Z,12.57
2023-04-09T06:09:29.605Z,11.93
2023-04-09T06:12:35.309Z,12.95
2023-04-09T06:15:39.629Z,12.55
2023-04-09T06:18:42.603Z,11.88
2023-04-09T06:21:45.564Z,11.83
2023-04-09T06:24:48.483Z,13.45
2023-04-09T06:27:51.258Z,12.32
2023-04-09T06:30:55.317Z,15.27
2023-04-09T06:33:58.201Z,17.23
2023-04-09T06:37:00.831Z,15.45
2023-04-09T06:40:03.761Z,16.50
2023-04-09T06:43:06.589Z,14.52
2023-04-09T06:46:20.616Z,14.95
2023-04-09T06:49:23.202Z,15.45
2023-04-09T06:52:26.213Z,15.23
2023-04-09T06:55:29.168Z,15.38
2023-04-09T06:58:31.983Z,14.20
2023-04-09T07:01:35.870Z,14.43
2023-04-09T07:04:38.905Z,12.10
2023-04-09T07:07:41.463Z,13.73
2023-04-09T07:10:47.561Z,13.50
2023-04-09T07:13:50.552Z,13.05
2023-04-09T07:16:53.407Z,14.38
2023-04-09T07:19:56.521Z,13.35
2023-04-09T07:22:59.809Z,14.20
2023-04-09T07:26:04.529Z,12.65
2023-04-09T07:29:08.158Z,12.07
2023-04-09T07:32:10.868Z,13.47
2023-04-09T07:35:13.772Z,13.48
2023-04-09T07:38:16.802Z,14.65
2023-04-09T07:41:19.788Z,12.55
2023-04-09T07:44:22.441Z,13.20
2023-04-09T07:47:25.460Z,13.55
2023-04-09T07:50:28.182Z,12.52
2023-04-09T07:53:31.142Z,14.77
2023-04-09T07:56:33.868Z,14.55
2023-04-09T07:59:36.799Z,12.90
2023-04-09T08:02:39.981Z,13.37
2023-04-09T08:05:43.284Z,12.93
2023-04-09T08:08:46.236Z,12.20
2023-04-09T08:11:49.737Z,11.35
2023-04-09T08:14:52.714Z,11.60
2023-04-09T08:17:55.746Z,11.50
2023-04-09T08:20:58.650Z,12.20
2023-04-09T08:24:04.624Z,12.40
2023-04-09T08:27:07.348Z,10.02
2023-04-09T08:30:10.743Z,11.38
2023-04-09T08:33:14.018Z,10.63
2023-04-09T08:36:16.984Z,10.05
2023-04-09T08:39:20.755Z,9.77
2023-04-09T08:42:26.423Z,9.95
2023-04-09T08:45:29.404Z,7.90
2023-04-09T08:48:32.582Z,8.63
2023-04-09T08:51:35.286Z,8.82
2023-04-09T08:54:38.472Z,8.07
2023-04-09T08:57:41.540Z,8.50
2023-04-09T09:00:44.951Z,8.10
2023-04-09T09:04:04.645Z,6.93
2023-04-09T09:07:07.597Z,6.57
2023-04-09T09:10:10.517Z,6.20
2023-04-09T09:13:24.420Z,5.75
2023-04-09T09:16:27.594Z,6.03
2023-04-09T09:19:33.694Z,5.70
2023-04-09T09:22:55.255Z,5.80
2023-04-09T09:25:58.477Z,7.63
2023-04-09T09:29:04.148Z,5.70
2023-04-09T09:32:13.913Z,5.60
2023-04-09T09:35:16.627Z,6.10
2023-04-09T09:38:19.350Z,5.40
2023-04-09T09:41:22.388Z,5.97
2023-04-09T09:44:33.228Z,6.03
2023-04-09T09:47:36.550Z,5.60
2023-04-09T09:50:42.205Z,5.38
2023-04-09T09:53:47.134Z,5.68
2023-04-09T09:56:53.170Z,5.90
2023-04-09T10:00:04.249Z,5.05
2023-04-09T10:03:20.393Z,5.57
2023-04-09T10:06:23.976Z,5.20
2023-04-09T10:09:28.378Z,7.07
2023-04-09T10:12:31.440Z,5.57
2023-04-09T10:15:34.140Z,5.32
2023-04-09T10:18:37.010Z,6.75
2023-04-09T10:21:54.959Z,5.47
2023-04-09T10:24:58.188Z,5.97
2023-04-09T10:28:02.465Z,5.67
2023-04-09T10:31:08.829Z,6.18
2023-04-09T10:34:11.569Z,6.50
2023-04-09T10:37:17.009Z,5.73
2023-04-09T10:40:22.627Z,6.05
2023-04-09T10:43:25.409Z,6.05
2023-04-09T10:46:34.957Z,6.03
2023-04-09T10:49:39.775Z,5.72
2023-04-09T10:52:42.765Z,7.30
2023-04-09T10:55:50.414Z,6.85
2023-04-09T10:58:54.233Z,6.33
2023-04-09T11:01:57.196Z,6.55
2023-04-09T11:05:18.376Z,6.57
2023-04-09T11:08:22.367Z,6.70
2023-04-09T11:11:28.575Z,6.55
2023-04-09T11:14:33.463Z,6.10
2023-04-09T11:17:37.138Z,5.97
2023-04-09T11:20:40.337Z,6.65
2023-04-09T11:23:51.469Z,5.93
2023-04-09T11:26:54.835Z,6.85
2023-04-09T11:29:57.572Z,6.20
2023-04-09T11:33:01.159Z,5.55
2023-04-09T11:36:06.884Z,5.75
2023-04-09T11:39:09.542Z,6.30
2023-04-09T11:42:15.729Z,5.90
2023-04-09T11:45:19.176Z,7.50
2023-04-09T11:48:24.007Z,6.70
2023-04-09T11:51:27.460Z,6.85
2023-04-09T11:54:36.750Z,6.10
2023-04-09T11:57:48.324Z,6.15
2023-04-09T12:01:01.026Z,6.80
2023-04-09T12:04:05.645Z,6.95
2023-04-09T12:07:09.457Z,7.63
2023-04-09T12:10:12.630Z,7.00
2023-04-09T12:13:16.949Z,6.00
2023-04-09T12:16:21.358Z,7.28
2023-04-09T12:19:26.041Z,6.15
2023-04-09T12:22:28.500Z,6.78
2023-04-09T12:25:32.884Z,6.47
2023-04-09T12:28:35.776Z,6.43
2023-04-09T12:31:38.780Z,6.57
2023-04-09T12:34:41.606Z,6.00
2023-04-09T12:37:44.999Z,6.32
2023-04-09T12:40:48.977Z,6.50
2023-04-09T12:43:52.106Z,7.05
2023-04-09T12:47:00.248Z,6.40
2023-04-09T12:50:04.778Z,6.43
2023-04-09T12:53:07.439Z,6.15
2023-04-09T12:56:10.741Z,6.85
2023-04-09T12:59:13.438Z,7.20
2023-04-09T13:02:16.728Z,6.30
2023-04-09T13:05:19.642Z,6.03
2023-04-09T13:08:22.768Z,5.85
2023-04-09T13:11:25.917Z,6.77
2023-04-09T13:14:28.848Z,6.07
2023-04-09T13:17:31.585Z,6.03
2023-04-09T13:20:35.079Z,5.70
2023-04-09T13:23:37.516Z,5.60
2023-04-09T13:26:42.277Z,7.13
2023-04-09T13:29:45.016Z,6.32
2023-04-09T13:32:48.010Z,5.97
2023-04-09T13:35:51.345Z,6.35
2023-04-09T13:38:54.545Z,6.65
2023-04-09T13:41:58.246Z,7.80
2023-04-09T13:45:01.362Z,6.93
2023-04-09T13:48:05.585Z,7.20
2023-04-09T13:51:08.949Z,8.38
2023-04-09T13:54:11.635Z,6.13
2023-04-09T13:57:14.544Z,7.60
2023-04-09T14:00:17.457Z,6.22
2023-04-09T14:03:20.687Z,5.53
2023-04-09T14:06:23.454Z,7.00
2023-04-09T14:09:26.185Z,6.80
2023-04-09T14:12:29.428Z,7.50
2023-04-09T14:15:32.796Z,7.15
2023-04-09T14:18:35.554Z,6.50
2023-04-09T14:21:39.286Z,6.47
2023-04-09T14:24:41.922Z,6.55
2023-04-09T14:27:45.109Z,7.90
2023-04-09T14:30:48.452Z,9.80
2023-04-09T14:33:51.208Z,6.50
2023-04-09T14:36:53.587Z,6.55
2023-04-09T14:39:56.554Z,6.30
2023-04-09T14:43:00.382Z,6.80
2023-04-09T14:46:04.310Z,6.40
2023-04-09T14:49:07.081Z,6.50
2023-04-09T14:52:10.103Z,8.98
2023-04-09T14:55:12.639Z,7.90
2023-04-09T14:58:15.518Z,7.13
2023-04-09T15:01:18.080Z,9.43
2023-04-09T15:04:21.271Z,8.23
2023-04-09T15:07:25.258Z,6.47
2023-04-09T15:10:28.577Z,6.90
2023-04-09T15:13:31.489Z,6.43
2023-04-09T15:16:37.748Z,6.60
2023-04-09T15:19:40.544Z,8.18
2023-04-09T15:22:43.748Z,8.27
2023-04-09T15:25:48.081Z,6.75
2023-04-09T15:28:51.509Z,7.63
2023-04-09T15:31:54.589Z,7.20
2023-04-09T15:34:57.604Z,6.60
2023-04-09T15:38:00.274Z,7.22
2023-04-09T15:41:03.284Z,7.63
2023-04-09T15:44:05.930Z,6.93
2023-04-09T15:47:08.570Z,9.43
2023-04-09T15:50:11.286Z,9.13
2023-04-09T15:53:17.715Z,9.18
2023-04-09T15:56:20.359Z,9.73
2023-04-09T15:59:23.326Z,9.00
2023-04-09T16:02:26.650Z,8.82
2023-04-09T16:05:29.827Z,8.00
2023-04-09T16:08:32.686Z,7.82
2023-04-09T16:11:36.706Z,7.65
2023-04-09T16:14:41.010Z,7.83
2023-04-09T16:17:43.731Z,8.48
2023-04-09T16:20:46.602Z,9.15
2023-04-09T16:23:50.010Z,11.07
2023-04-09T16:26:52.402Z,10.57
2023-04-09T16:29:55.554Z,11.38
2023-04-09T16:32:58.521Z,10.65
2023-04-09T16:36:01.638Z,10.30
2023-04-09T16:39:05.079Z,9.93
2023-04-09T16:42:07.933Z,9.50
2023-04-09T16:45:11.251Z,8.53
2023-04-09T16:48:14.278Z,8.27
2023-04-09T16:51:17.241Z,8.00
2023-04-09T16:54:20.770Z,7.88
2023-04-09T16:57:23.292Z,7.93
2023-04-09T17:00:27.638Z,8.90
2023-04-09T17:03:30.621Z,7.65
2023-04-09T17:06:33.501Z,8.50
2023-04-09T17:09:36.257Z,21.58
2023-04-09T17:12:39.208Z,21.35
2023-04-09T17:15:42.267Z,22.07
2023-04-09T17:18:45.764Z,14.45
2023-04-09T17:21:48.389Z,12.20
2023-04-09T17:24:52.898Z,10.85
2023-04-09T17:27:55.288Z,9.98
2023-04-09T17:30:58.145Z,11.38
2023-04-09T17:34:00.896Z,11.07
2023-04-09T17:37:03.810Z,12.80
2023-04-09T17:40:06.877Z,13.18
2023-04-09T17:43:10.125Z,14.45
2023-04-09T17:46:12.879Z,12.43
2023-04-09T17:49:15.612Z,12.32
2023-04-09T17:52:18.623Z,11.43
2023-04-09T17:55:23.773Z,11.40
2023-04-09T17:58:27.011Z,11.05
2023-04-09T18:01:29.947Z,11.02
2023-04-09T18:04:34.377Z,10.80
2023-04-09T18:07:38.998Z,12.93
2023-04-09T18:10:42.209Z,19.83
2023-04-09T18:13:45.086Z,26.35
2023-04-09T18:16:47.978Z,28.77
2023-04-09T18:19:53.691Z,33.55
2023-04-09T18:22:56.369Z,33.50
2023-04-09T18:25:59.041Z,33.38
2023-04-09T18:29:01.819Z,37.97
2023-04-09T18:32:05.503Z,34.25
2023-04-09T18:35:08.532Z,31.75
2023-04-09T18:38:11.348Z,32.63
2023-04-09T18:41:21.165Z,32.33
2023-04-09T18:44:23.717Z,34.85
2023-04-09T18:47:26.603Z,38.97
2023-04-09T18:50:29.249Z,38.47
2023-04-09T18:53:31.973Z,35.13
2023-04-09T18:56:34.920Z,31.63
2023-04-09T18:59:37.390Z,33.55
2023-04-09T19:02:40.696Z,37.78
2023-04-09T19:05:43.850Z,40.53
2023-04-09T19:08:48.108Z,39.40
2023-04-09T19:11:51.120Z,36.55
2023-04-09T19:14:57.056Z,37.13
2023-04-09T19:18:00.027Z,43.60
2023-04-09T19:21:02.829Z,41.35
2023-04-09T19:24:06.233Z,42.17
2023-04-09T19:27:10.312Z,48.05
2023-04-09T19:30:13.115Z,42.45
2023-04-09T19:33:16.410Z,46.92
2023-04-09T19:36:19.216Z,46.47
2023-04-09T19:39:22.327Z,46.90
2023-04-09T19:42:25.544Z,45.97
2023-04-09T19:45:28.474Z,49.08
2023-04-09T19:48:31.432Z,50.73
2023-04-09T19:51:34.571Z,49.00
2023-04-09T19:54:37.680Z,45.75
2023-04-09T19:57:41.121Z,41.88
2023-04-09T20:00:43.703Z,40.80
2023-04-09T20:03:47.240Z,42.75
2023-04-09T20:06:51.591Z,43.78
2023-04-09T20:09:55.030Z,45.40
2023-04-09T20:12:58.120Z,45.60
2023-04-09T20:16:01.335Z,42.95
2023-04-09T20:19:04.496Z,38.30
2023-04-09T20:22:07.346Z,35.08
2023-04-09T20:25:12.536Z,28.48
2023-04-09T20:28:15.504Z,28.35
2023-04-09T20:31:18.033Z,26.65
2023-04-09T20:34:26.786Z,29.52
2023-04-09T20:37:29.622Z,30.60
2023-04-09T20:40:35.467Z,34.73
2023-04-09T20:43:38.524Z,35.83
2023-04-09T20:46:41.326Z,32.33
2023-04-09T20:49:45.871Z,29.50
2023-04-09T20:52:49.978Z,28.02
2023-04-09T20:55:53.433Z,26.10
2023-04-09T20:58:57.854Z,25.40
2023-04-09T21:02:00.645Z,22.98
2023-04-09T21:05:15.685Z,22.92
2023-04-09T21:08:24.683Z,20.67
2023-04-09T21:11:27.749Z,18.67
2023-04-09T21:14:31.525Z,19.83
2023-04-09T21:17:34.301Z,21.08
2023-04-09T21:20:37.449Z,21.33
2023-04-09T21:23:41.786Z,23.05
2023-04-09T21:26:51.724Z,24.25
2023-04-09T21:29:55.538Z,22.35
2023-04-09T21:33:01.102Z,23.52
2023-04-09T21:36:04.956Z,23.95
2023-04-09T21:39:07.916Z,19.58
2023-04-09T21:42:15.119Z,19.00
2023-04-09T21:45:18.174Z,17.38
2023-04-09T21:48:21.694Z,15.93
2023-04-09T21:51:25.023Z,15.57
2023-04-09T21:54:28.191Z,14.00
2023-04-09T21:57:30.822Z,16.40
2023-04-09T22:00:33.798Z,15.43
2023-04-09T22:03:36.450Z,14.30
2023-04-09T22:06:40.544Z,17.77
2023-04-09T22:09:42.931Z,19.15
2023-04-09T22:12:46.510Z,21.23
2023-04-09T22:15:49.327Z,20.10
2023-04-09T22:18:52.948Z,17.90
2023-04-09T22:21:56.353Z,19.53
2023-04-09T22:24:59.001Z,18.65
2023-04-09T22:28:02.009Z,17.20
2023-04-09T22:31:05.462Z,16.05
2023-04-09T22:34:20.163Z,15.98
2023-04-09T22:37:24.619Z,17.17
2023-04-09T22:40:27.328Z,19.33
2023-04-09T22:43:30.404Z,16.87
2023-04-09T22:46:34.640Z,14.68
2023-04-09T22:49:37.819Z,15.45
2023-04-09T22:52:40.867Z,14.63
2023-04-09T22:55:43.589Z,13.43
2023-04-09T22:58:46.325Z,12.95
2023-04-09T23:01:50.111Z,13.27
2023-04-09T23:04:52.848Z,13.38
2023-04-09T23:07:56.097Z,13.48
2023-04-09T23:10:58.656Z,13.38
2023-04-09T23:14:01.744Z,13.23
2023-04-09T23:17:04.464Z,13.95
2023-04-09T23:20:08.960Z,13.98
2023-04-09T23:23:12.344Z,13.20
2023-04-09T23:26:15.024Z,13.23
2023-04-09T23:29:18.093Z,12.68
2023-04-09T23:32:22.001Z,13.40
2023-04-09T23:35:24.538Z,11.75
2023-04-09T23:38:27.798Z,12.35
2023-04-09T23:41:31.794Z,12.65
2023-04-09T23:44:36.522Z,12.80
2023-04-09T23:47:39.431Z,13.18
2023-04-09T23:50:42.532Z,12.75
2023-04-09T23:53:46.670Z,12.07
2023-04-09T23:56:49.467Z,12.77
2023-04-09T23:59:52.377Z,12.45
